Time;durP1;ratioP1;P1;durP2;ratioP2;P2;SDS_P1;SDS_P2;PMS_P1;PMS_P2;Temp;Humidity;BMP_temperature;BMP_pressure;BME280_temperature;BME280_humidity;BME280_pressure;Samples;Min_cycle;Max_cycle;Signal;HPM_P1;HPM_P2
2023/07/01 00:01:40;;;;;;;12.02;5.78;;;;;;;;;;4980743;28;20050;-66
2023/07/01 00:04:07;;;;;;;13.55;6.00;;;;;;;;;;4978637;28;20626;-66
2023/07/01 00:06:33;;;;;;;13.73;6.18;;;;;;;;;;4970506;28;20454;-66
2023/07/01 00:08:59;;;;;;;12.95;5.82;;;;;;;;;;4974386;28;20125;-66
2023/07/01 00:11:25;;;;;;;13.18;5.63;;;;;;;;;;4981300;28;20320;-65
2023/07/01 00:13:51;;;;;;;14.27;5.75;;;;;;;;;;4958663;28;20033;-66
2023/07/01 00:16:18;;;;;;;15.00;5.97;;;;;;;;;;4983594;28;20037;-65
2023/07/01 00:18:45;;;;;;;12.82;5.90;;;;;;;;;;4962562;28;20491;-66
2023/07/01 00:21:12;;;;;;;12.15;5.82;;;;;;;;;;4979309;28;20169;-66
2023/07/01 00:23:38;;;;;;;12.98;5.40;;;;;;;;;;4959423;28;20045;-66
2023/07/01 00:26:04;;;;;;;11.60;5.10;;;;;;;;;;4975706;28;20073;-66
2023/07/01 00:28:30;;;;;;;13.27;6.03;;;;;;;;;;4957260;28;20031;-66
2023/07/01 00:30:56;;;;;;;12.23;5.60;;;;;;;;;;4955756;28;20496;-66
2023/07/01 00:33:22;;;;;;;12.55;5.57;;;;;;;;;;4978577;28;20036;-66
2023/07/01 00:35:49;;;;;;;12.20;5.47;;;;;;;;;;4972667;28;20109;-67
2023/07/01 00:38:15;;;;;;;12.13;5.15;;;;;;;;;;4960054;28;20040;-65
2023/07/01 00:40:41;;;;;;;12.07;5.22;;;;;;;;;;4962761;28;20380;-66
2023/07/01 00:43:07;;;;;;;11.85;5.55;;;;;;;;;;4972584;28;20093;-66
2023/07/01 00:45:33;;;;;;;13.18;5.32;;;;;;;;;;4960548;28;20034;-66
2023/07/01 00:47:59;;;;;;;12.68;4.93;;;;;;;;;;4959789;28;20120;-66
2023/07/01 00:50:26;;;;;;;13.27;5.70;;;;;;;;;;4973877;28;20539;-65
2023/07/01 00:52:52;;;;;;;11.85;5.35;;;;;;;;;;4951820;28;20037;-66
2023/07/01 00:55:18;;;;;;;15.40;6.13;;;;;;;;;;4971911;28;20479;-66
2023/07/01 00:57:44;;;;;;;15.60;6.35;;;;;;;;;;4959820;28;20467;-66
2023/07/01 01:00:12;;;;;;;13.10;5.95;;;;;;;;;;4957984;28;20140;-66
2023/07/01 01:02:41;;;;;;;14.60;6.13;;;;;;;;;;4959856;28;20041;-66
2023/07/01 01:05:10;;;;;;;16.77;6.63;;;;;;;;;;4959933;28;20438;-66
2023/07/01 01:07:52;;;;;;;15.40;7.38;;;;;;;;;;4971997;28;20140;-66
2023/07/01 01:10:22;;;;;;;14.35;6.43;;;;;;;;;;4974735;28;20344;-65
2023/07/01 01:12:48;;;;;;;12.30;6.30;;;;;;;;;;4957022;28;20049;-66
2023/07/01 01:15:14;;;;;;;13.77;6.05;;;;;;;;;;4975147;28;20381;-65
2023/07/01 01:17:41;;;;;;;12.75;5.80;;;;;;;;;;4973169;28;20136;-66
2023/07/01 01:20:13;;;;;;;14.90;5.50;;;;;;;;;;4958609;28;20183;-66
2023/07/01 01:22:39;;;;;;;12.32;5.30;;;;;;;;;;4975799;28;20372;-67
2023/07/01 01:25:06;;;;;;;13.10;5.45;;;;;;;;;;4958146;28;21833;-65
2023/07/01 01:27:40;;;;;;;10.80;4.70;;;;;;;;;;4953706;28;20135;-66
2023/07/01 01:30:06;;;;;;;11.85;5.80;;;;;;;;;;4971882;28;20025;-66
2023/07/01 01:32:34;;;;;;;12.32;5.90;;;;;;;;;;4974515;28;20041;-66
2023/07/01 01:35:00;;;;;;;13.68;6.22;;;;;;;;;;4973519;28;20026;-66
2023/07/01 01:37:40;;;;;;;12.65;6.35;;;;;;;;;;4957835;28;20124;-65
2023/07/01 01:40:30;;;;;;;11.45;5.68;;;;;;;;;;4973135;28;20527;-65
2023/07/01 01:43:00;;;;;;;11.25;5.68;;;;;;;;;;4947967;28;20038;-65
2023/07/01 01:45:26;;;;;;;16.90;5.60;;;;;;;;;;4958007;28;20056;-65
2023/07/01 01:47:53;;;;;;;12.38;5.43;;;;;;;;;;4971205;28;20057;-65
2023/07/01 01:50:20;;;;;;;13.27;5.97;;;;;;;;;;4960625;28;20036;-65
2023/07/01 01:52:47;;;;;;;11.18;5.30;;;;;;;;;;4978217;28;20665;-67
2023/07/01 01:55:14;;;;;;;11.38;5.63;;;;;;;;;;4956563;28;20034;-68
2023/07/01 01:57:40;;;;;;;11.05;5.00;;;;;;;;;;4975958;28;20151;-65
2023/07/01 02:00:08;;;;;;;14.60;5.40;;;;;;;;;;4955651;28;20116;-65
2023/07/01 02:02:35;;;;;;;12.20;5.35;;;;;;;;;;4974046;28;20372;-66
2023/07/01 02:05:02;;;;;;;15.30;5.97;;;;;;;;;;4973263;28;20041;-66
2023/07/01 02:07:28;;;;;;;10.65;5.13;;;;;;;;;;4976039;28;20332;-65
2023/07/01 02:09:54;;;;;;;13.32;5.22;;;;;;;;;;4968424;28;20448;-66
2023/07/01 02:12:20;;;;;;;10.73;4.97;;;;;;;;;;4961542;28;20481;-65
2023/07/01 02:14:46;;;;;;;10.95;5.10;;;;;;;;;;4970697;28;20061;-66
2023/07/01 02:17:13;;;;;;;11.45;5.32;;;;;;;;;;4955753;28;20046;-66
2023/07/01 02:19:39;;;;;;;11.95;5.13;;;;;;;;;;4973563;28;20046;-66
2023/07/01 02:22:05;;;;;;;12.35;5.75;;;;;;;;;;4974018;28;20032;-66
2023/07/01 02:24:31;;;;;;;13.38;5.38;;;;;;;;;;4975259;28;20030;-66
2023/07/01 02:26:57;;;;;;;10.70;4.82;;;;;;;;;;4972145;28;20029;-66
2023/07/01 02:29:23;;;;;;;13.82;5.60;;;;;;;;;;4962284;28;20033;-66
2023/07/01 02:31:50;;;;;;;11.70;5.05;;;;;;;;;;4974911;28;20022;-66
2023/07/01 02:34:16;;;;;;;11.35;5.45;;;;;;;;;;4980309;28;20365;-66
2023/07/01 02:36:43;;;;;;;11.63;4.88;;;;;;;;;;4959519;28;20030;-66
2023/07/01 02:39:09;;;;;;;11.38;4.88;;;;;;;;;;4975796;28;20319;-66
2023/07/01 02:41:36;;;;;;;14.00;4.95;;;;;;;;;;4962485;28;20030;-66
2023/07/01 02:44:02;;;;;;;10.65;4.43;;;;;;;;;;4972603;28;20448;-66
2023/07/01 02:46:28;;;;;;;11.68;4.72;;;;;;;;;;4942957;28;20718;-65
2023/07/01 02:48:54;;;;;;;13.05;5.35;;;;;;;;;;4973679;28;20253;-65
2023/07/01 02:51:21;;;;;;;11.85;4.80;;;;;;;;;;4963497;28;20625;-65
2023/07/01 02:53:47;;;;;;;12.30;5.40;;;;;;;;;;4974118;28;20033;-65
2023/07/01 02:56:14;;;;;;;14.20;5.32;;;;;;;;;;4977291;28;20592;-65
2023/07/01 02:58:40;;;;;;;12.30;4.90;;;;;;;;;;4977917;28;20026;-65
2023/07/01 03:01:06;;;;;;;10.55;4.32;;;;;;;;;;4955216;28;21124;-65
2023/07/01 03:03:32;;;;;;;11.38;4.90;;;;;;;;;;4977348;28;20038;-65
2023/07/01 03:05:58;;;;;;;13.65;5.20;;;;;;;;;;4980134;28;20058;-66
2023/07/01 03:08:24;;;;;;;10.48;4.63;;;;;;;;;;4978551;28;20216;-65
2023/07/01 03:10:50;;;;;;;13.00;4.63;;;;;;;;;;4957100;28;20112;-65
2023/07/01 03:13:17;;;;;;;11.27;4.93;;;;;;;;;;4976806;28;20061;-65
2023/07/01 03:15:43;;;;;;;13.80;5.22;;;;;;;;;;4958145;28;20069;-65
2023/07/01 03:18:09;;;;;;;11.48;4.53;;;;;;;;;;4951633;28;20054;-65
2023/07/01 03:20:35;;;;;;;11.50;4.55;;;;;;;;;;4957351;28;20164;-66
2023/07/01 03:23:01;;;;;;;10.40;4.07;;;;;;;;;;4974776;28;20569;-65
2023/07/01 03:25:28;;;;;;;14.10;4.70;;;;;;;;;;4957223;28;20025;-65
2023/07/01 03:27:54;;;;;;;12.45;5.05;;;;;;;;;;4974616;28;20367;-65
2023/07/01 03:30:22;;;;;;;13.65;5.88;;;;;;;;;;4976306;28;20530;-65
2023/07/01 03:32:48;;;;;;;12.15;4.68;;;;;;;;;;4974560;28;20489;-64
2023/07/01 03:35:15;;;;;;;11.60;5.30;;;;;;;;;;4978228;28;20033;-65
2023/07/01 03:37:42;;;;;;;11.00;5.05;;;;;;;;;;4974451;28;20830;-65
2023/07/01 03:40:12;;;;;;;13.57;5.90;;;;;;;;;;4971968;28;20084;-65
2023/07/01 03:42:39;;;;;;;11.63;5.05;;;;;;;;;;4981356;28;20037;-65
2023/07/01 03:45:07;;;;;;;11.70;4.95;;;;;;;;;;4972178;28;20034;-65
2023/07/01 03:47:33;;;;;;;13.80;5.03;;;;;;;;;;4961111;28;20235;-65
2023/07/01 03:49:59;;;;;;;11.52;4.75;;;;;;;;;;4971737;28;20031;-66
2023/07/01 03:52:26;;;;;;;12.02;4.72;;;;;;;;;;4980735;28;20025;-66
2023/07/01 03:54:52;;;;;;;10.30;4.82;;;;;;;;;;4977741;28;20392;-65
2023/07/01 03:57:18;;;;;;;14.75;4.90;;;;;;;;;;4979757;28;20515;-66
2023/07/01 03:59:44;;;;;;;11.48;4.90;;;;;;;;;;4981876;28;20061;-65
2023/07/01 04:02:10;;;;;;;12.02;4.57;;;;;;;;;;4976970;28;20131;-66
2023/07/01 04:04:37;;;;;;;11.80;4.53;;;;;;;;;;4962313;28;20448;-66
2023/07/01 04:07:05;;;;;;;10.73;4.35;;;;;;;;;;4961711;28;20042;-65
2023/07/01 04:09:31;;;;;;;10.85;4.00;;;;;;;;;;4964860;28;20060;-65
2023/07/01 04:11:58;;;;;;;12.02;4.22;;;;;;;;;;4979549;28;20033;-65
2023/07/01 04:14:24;;;;;;;11.80;4.43;;;;;;;;;;4962801;28;20041;-65
2023/07/01 04:16:51;;;;;;;9.70;4.13;;;;;;;;;;4979497;28;20038;-64
2023/07/01 04:19:17;;;;;;;9.40;4.13;;;;;;;;;;4977008;28;20054;-64
2023/07/01 04:21:43;;;;;;;10.70;4.00;;;;;;;;;;4962891;28;20140;-64
2023/07/01 04:24:09;;;;;;;13.43;4.13;;;;;;;;;;4960605;28;20041;-64
2023/07/01 04:26:36;;;;;;;10.23;3.80;;;;;;;;;;4979729;28;20049;-64
2023/07/01 04:29:02;;;;;;;10.80;3.80;;;;;;;;;;4976623;28;20115;-66
2023/07/01 04:31:28;;;;;;;9.80;3.92;;;;;;;;;;4962300;28;20037;-64
2023/07/01 04:33:55;;;;;;;10.85;3.92;;;;;;;;;;4977288;28;20056;-65
2023/07/01 04:36:21;;;;;;;11.95;4.38;;;;;;;;;;4980524;28;20218;-64
2023/07/01 04:38:47;;;;;;;9.88;3.92;;;;;;;;;;4972988;28;20029;-64
2023/07/01 04:41:14;;;;;;;11.20;3.97;;;;;;;;;;4973772;28;20044;-65
2023/07/01 04:43:40;;;;;;;10.68;4.45;;;;;;;;;;4959316;28;20536;-64
2023/07/01 04:46:06;;;;;;;11.65;4.38;;;;;;;;;;4959649;28;20074;-64
2023/07/01 04:48:32;;;;;;;11.55;4.57;;;;;;;;;;4976139;28;20545;-64
2023/07/01 04:50:58;;;;;;;10.52;4.57;;;;;;;;;;4968719;28;20034;-65
2023/07/01 04:53:25;;;;;;;11.57;4.63;;;;;;;;;;4976663;28;20033;-67
2023/07/01 04:55:51;;;;;;;11.07;4.88;;;;;;;;;;4977028;28;20334;-67
2023/07/01 04:58:17;;;;;;;11.70;4.30;;;;;;;;;;4976892;28;20026;-64
2023/07/01 05:00:43;;;;;;;10.30;4.38;;;;;;;;;;4975662;28;20099;-65
2023/07/01 05:03:09;;;;;;;11.95;4.88;;;;;;;;;;4972663;28;20645;-64
2023/07/01 05:05:35;;;;;;;12.88;4.80;;;;;;;;;;4972527;28;20794;-64
2023/07/01 05:08:02;;;;;;;13.05;5.30;;;;;;;;;;4954766;28;20038;-64
2023/07/01 05:10:28;;;;;;;10.20;4.30;;;;;;;;;;4959908;28;20054;-64
2023/07/01 05:12:54;;;;;;;11.43;4.20;;;;;;;;;;4971509;28;20032;-64
2023/07/01 05:15:20;;;;;;;12.48;4.47;;;;;;;;;;4977163;28;20483;-65
2023/07/01 05:17:46;;;;;;;10.48;4.03;;;;;;;;;;4959584;28;20103;-64
2023/07/01 05:20:13;;;;;;;10.75;3.85;;;;;;;;;;4962513;28;20026;-64
2023/07/01 05:22:39;;;;;;;8.55;3.45;;;;;;;;;;4982541;28;20823;-64
2023/07/01 05:25:05;;;;;;;10.02;3.60;;;;;;;;;;4975741;28;20034;-64
2023/07/01 05:27:32;;;;;;;11.27;3.30;;;;;;;;;;4977196;28;20129;-65
2023/07/01 05:29:58;;;;;;;9.23;3.40;;;;;;;;;;4972025;28;20443;-65
2023/07/01 05:32:24;;;;;;;10.15;3.60;;;;;;;;;;4976183;28;20029;-65
2023/07/01 05:34:50;;;;;;;9.75;3.35;;;;;;;;;;4973045;28;20087;-65
2023/07/01 05:37:16;;;;;;;10.85;4.20;;;;;;;;;;4975634;28;20037;-65
2023/07/01 05:39:43;;;;;;;11.40;5.57;;;;;;;;;;4977013;28;20228;-65
2023/07/01 05:42:09;;;;;;;11.50;4.10;;;;;;;;;;4979994;28;20025;-65
2023/07/01 05:44:35;;;;;;;10.85;4.10;;;;;;;;;;4981646;28;20034;-65
2023/07/01 05:47:01;;;;;;;10.45;4.07;;;;;;;;;;4958932;28;20663;-65
2023/07/01 05:49:27;;;;;;;12.75;4.43;;;;;;;;;;4974535;28;20026;-65
2023/07/01 05:51:54;;;;;;;9.23;2.95;;;;;;;;;;4972997;28;20125;-65
2023/07/01 05:54:20;;;;;;;9.70;3.17;;;;;;;;;;4976928;28;20029;-65
2023/07/01 05:56:46;;;;;;;11.05;3.00;;;;;;;;;;4978315;28;20589;-65
2023/07/01 05:59:13;;;;;;;11.77;3.13;;;;;;;;;;4976227;28;20034;-65
2023/07/01 06:01:39;;;;;;;8.25;2.83;;;;;;;;;;4976193;28;20157;-65
2023/07/01 06:04:06;;;;;;;8.93;3.03;;;;;;;;;;4972404;28;21198;-65
2023/07/01 06:06:32;;;;;;;11.45;3.28;;;;;;;;;;4978484;28;20034;-64
2023/07/01 06:08:58;;;;;;;12.73;3.30;;;;;;;;;;4961880;28;20068;-65
2023/07/01 06:11:24;;;;;;;10.02;3.33;;;;;;;;;;4978860;28;20060;-65
2023/07/01 06:13:50;;;;;;;12.13;3.47;;;;;;;;;;4976762;28;20690;-65
2023/07/01 06:16:17;;;;;;;10.77;3.50;;;;;;;;;;4962729;28;20077;-65
2023/07/01 06:18:44;;;;;;;8.85;3.45;;;;;;;;;;4963817;28;20496;-65
2023/07/01 06:21:10;;;;;;;10.93;3.47;;;;;;;;;;4980308;28;20041;-65
2023/07/01 06:23:36;;;;;;;9.90;3.47;;;;;;;;;;4959583;28;20568;-64
2023/07/01 06:26:03;;;;;;;9.48;3.55;;;;;;;;;;4978211;28;20460;-65
2023/07/01 06:28:29;;;;;;;12.02;3.70;;;;;;;;;;4978409;28;20057;-65
2023/07/01 06:30:55;;;;;;;10.45;3.13;;;;;;;;;;4982554;28;20034;-65
2023/07/01 06:33:22;;;;;;;10.35;3.10;;;;;;;;;;4960875;28;20032;-65
2023/07/01 06:35:48;;;;;;;9.68;3.33;;;;;;;;;;4974972;28;20030;-65
2023/07/01 06:38:14;;;;;;;11.10;3.30;;;;;;;;;;4973651;28;20482;-65
2023/07/01 06:40:40;;;;;;;9.77;2.97;;;;;;;;;;4978591;28;20034;-66
2023/07/01 06:43:07;;;;;;;12.57;3.33;;;;;;;;;;4976082;28;20399;-65
2023/07/01 06:45:33;;;;;;;9.55;3.00;;;;;;;;;;4978385;28;20038;-65
2023/07/01 06:47:59;;;;;;;11.07;3.50;;;;;;;;;;4953220;28;20096;-65
2023/07/01 06:50:25;;;;;;;10.60;3.20;;;;;;;;;;4954133;28;20141;-64
2023/07/01 06:52:51;;;;;;;11.82;3.15;;;;;;;;;;4975911;28;20100;-65
2023/07/01 06:55:18;;;;;;;10.13;2.72;;;;;;;;;;4973484;28;20041;-64
2023/07/01 06:57:44;;;;;;;9.60;2.50;;;;;;;;;;4956793;28;20035;-65
2023/07/01 07:00:13;;;;;;;9.23;2.50;;;;;;;;;;4971303;28;20332;-65
2023/07/01 07:02:40;;;;;;;11.68;3.03;;;;;;;;;;4963151;28;20029;-65
2023/07/01 07:05:07;;;;;;;9.52;2.35;;;;;;;;;;4959440;28;20846;-65
2023/07/01 07:07:33;;;;;;;10.52;2.50;;;;;;;;;;4977678;28;20026;-66
2023/07/01 07:09:59;;;;;;;9.82;2.10;;;;;;;;;;4971145;28;20042;-65
2023/07/01 07:12:26;;;;;;;14.15;4.47;;;;;;;;;;4980350;28;20024;-65
2023/07/01 07:14:52;;;;;;;13.25;4.40;;;;;;;;;;4975912;28;20411;-65
2023/07/01 07:17:18;;;;;;;14.15;4.65;;;;;;;;;;4979151;28;20033;-64
2023/07/01 07:19:45;;;;;;;11.95;4.75;;;;;;;;;;4978714;28;20388;-64
2023/07/01 07:22:11;;;;;;;13.02;5.25;;;;;;;;;;4976763;28;20045;-67
2023/07/01 07:24:37;;;;;;;13.57;4.95;;;;;;;;;;4980998;28;20487;-67
2023/07/01 07:27:03;;;;;;;13.10;5.28;;;;;;;;;;4976993;28;20073;-64
2023/07/01 07:29:30;;;;;;;11.23;4.82;;;;;;;;;;4984032;28;20449;-66
2023/07/01 07:31:57;;;;;;;13.18;5.18;;;;;;;;;;4975836;28;20006;-65
2023/07/01 07:34:23;;;;;;;13.73;4.70;;;;;;;;;;4963288;28;20038;-65
2023/07/01 07:36:49;;;;;;;12.45;4.47;;;;;;;;;;4976627;28;20046;-65
2023/07/01 07:39:16;;;;;;;11.07;3.85;;;;;;;;;;4980476;28;20045;-65
2023/07/01 07:41:42;;;;;;;11.35;3.97;;;;;;;;;;4980910;28;20444;-65
2023/07/01 07:44:08;;;;;;;12.18;3.97;;;;;;;;;;4980308;28;20038;-65
2023/07/01 07:46:35;;;;;;;11.18;3.60;;;;;;;;;;4980839;28;20041;-66
2023/07/01 07:49:02;;;;;;;10.80;3.40;;;;;;;;;;4978913;28;20037;-66
2023/07/01 07:51:28;;;;;;;11.32;4.47;;;;;;;;;;4977235;28;20033;-65
2023/07/01 07:53:55;;;;;;;13.65;4.70;;;;;;;;;;4959963;28;20301;-67
2023/07/01 07:56:21;;;;;;;15.57;5.88;;;;;;;;;;4965699;28;20104;-66
2023/07/01 07:58:47;;;;;;;10.88;4.28;;;;;;;;;;4984901;28;20515;-65
2023/07/01 08:01:13;;;;;;;11.13;4.00;;;;;;;;;;4986600;28;20041;-66
2023/07/01 08:03:40;;;;;;;12.43;4.38;;;;;;;;;;4968148;28;20033;-65
2023/07/01 08:06:06;;;;;;;13.88;5.10;;;;;;;;;;4979831;28;22199;-65
2023/07/01 08:08:33;;;;;;;11.45;3.63;;;;;;;;;;4967302;28;20041;-65
2023/07/01 08:10:59;;;;;;;10.10;3.30;;;;;;;;;;4975664;28;20563;-65
2023/07/01 08:13:26;;;;;;;9.13;2.58;;;;;;;;;;4980477;28;20136;-65
2023/07/01 08:15:52;;;;;;;12.18;3.00;;;;;;;;;;4978799;28;20476;-65
2023/07/01 08:18:19;;;;;;;13.88;4.20;;;;;;;;;;4962920;28;20064;-65
2023/07/01 08:20:46;;;;;;;12.63;4.45;;;;;;;;;;4977195;28;20036;-65
2023/07/01 08:23:12;;;;;;;11.50;3.97;;;;;;;;;;4975049;28;20560;-66
2023/07/01 08:25:42;;;;;;;11.80;4.07;;;;;;;;;;4977708;28;20531;-65
2023/07/01 08:28:08;;;;;;;10.65;3.80;;;;;;;;;;4957479;28;20033;-65
2023/07/01 08:30:35;;;;;;;11.15;3.90;;;;;;;;;;4962178;28;20526;-66
2023/07/01 08:33:01;;;;;;;11.90;3.42;;;;;;;;;;4974449;28;20034;-66
2023/07/01 08:35:29;;;;;;;12.60;3.80;;;;;;;;;;4974930;28;20033;-66
2023/07/01 08:37:56;;;;;;;12.57;3.60;;;;;;;;;;4974793;28;20590;-67
2023/07/01 08:40:22;;;;;;;10.35;3.13;;;;;;;;;;4975538;28;20057;-66
2023/07/01 08:42:49;;;;;;;11.65;4.00;;;;;;;;;;4959852;28;20447;-66
2023/07/01 08:45:15;;;;;;;10.45;3.55;;;;;;;;;;4978980;28;20038;-66
2023/07/01 08:47:42;;;;;;;12.15;4.40;;;;;;;;;;4963231;28;20511;-66
2023/07/01 08:50:10;;;;;;;14.07;4.18;;;;;;;;;;4974177;28;20038;-66
2023/07/01 08:52:43;;;;;;;14.32;4.28;;;;;;;;;;4963612;28;20022;-66
2023/07/01 08:55:12;;;;;;;16.80;4.57;;;;;;;;;;4974476;28;20136;-68
2023/07/01 08:57:39;;;;;;;10.65;3.90;;;;;;;;;;4984680;28;20106;-66
2023/07/01 09:00:07;;;;;;;14.23;5.43;;;;;;;;;;4975113;28;24867;-66
2023/07/01 09:02:33;;;;;;;16.70;6.22;;;;;;;;;;4948625;28;20036;-66
2023/07/01 09:04:59;;;;;;;14.77;5.82;;;;;;;;;;4960623;28;20030;-66
2023/07/01 09:07:26;;;;;;;16.70;5.30;;;;;;;;;;4966667;28;20034;-66
2023/07/01 09:09:52;;;;;;;13.30;5.07;;;;;;;;;;4958717;28;20426;-66
2023/07/01 09:12:18;;;;;;;13.90;5.25;;;;;;;;;;4979198;28;20025;-66
2023/07/01 09:15:00;;;;;;;16.27;4.90;;;;;;;;;;4977838;28;20471;-66
2023/07/01 09:17:30;;;;;;;15.80;4.50;;;;;;;;;;4957776;28;20042;-66
2023/07/01 09:20:01;;;;;;;12.00;4.63;;;;;;;;;;4956266;28;20049;-65
2023/07/01 09:22:28;;;;;;;15.38;4.30;;;;;;;;;;4959536;28;20398;-66
2023/07/01 09:24:55;;;;;;;13.10;3.92;;;;;;;;;;4974233;28;20444;-65
2023/07/01 09:27:21;;;;;;;12.10;4.28;;;;;;;;;;4980258;28;20052;-65
2023/07/01 09:29:47;;;;;;;11.05;3.83;;;;;;;;;;4978318;28;20038;-67
2023/07/01 09:32:29;;;;;;;12.68;4.05;;;;;;;;;;4960833;28;20287;-67
2023/07/01 09:34:57;;;;;;;12.77;4.60;;;;;;;;;;4976886;28;20094;-65
2023/07/01 09:37:26;;;;;;;14.32;3.95;;;;;;;;;;4977004;28;20036;-66
2023/07/01 09:39:52;;;;;;;13.15;3.92;;;;;;;;;;4959137;28;20119;-65
2023/07/01 09:42:19;;;;;;;11.27;3.40;;;;;;;;;;4982879;28;20019;-65
2023/07/01 09:45:04;;;;;;;17.38;3.90;;;;;;;;;;4980823;28;20110;-65
2023/07/01 09:47:31;;;;;;;14.88;4.18;;;;;;;;;;4978118;28;20429;-64
2023/07/01 09:49:57;;;;;;;14.60;3.80;;;;;;;;;;4960090;28;20025;-65
2023/07/01 09:52:35;;;;;;;11.57;3.85;;;;;;;;;;4977865;28;20415;-65
2023/07/01 09:55:03;;;;;;;11.48;3.13;;;;;;;;;;4967868;28;20115;-66
2023/07/01 09:57:29;;;;;;;10.73;2.65;;;;;;;;;;4957845;28;20551;-66
2023/07/01 09:59:56;;;;;;;10.35;3.15;;;;;;;;;;4956566;28;20477;-66
2023/07/01 10:02:23;;;;;;;13.25;2.70;;;;;;;;;;4977681;28;20560;-65
2023/07/01 10:04:49;;;;;;;10.00;2.67;;;;;;;;;;4957967;28;20077;-65
2023/07/01 10:07:15;;;;;;;10.55;2.63;;;;;;;;;;4962224;28;20103;-65
2023/07/01 10:09:46;;;;;;;10.07;2.95;;;;;;;;;;4983202;28;20457;-65
2023/07/01 10:12:14;;;;;;;10.50;2.72;;;;;;;;;;4973640;28;20380;-65
2023/07/01 10:14:42;;;;;;;10.23;2.55;;;;;;;;;;4977328;28;20037;-65
2023/07/01 10:17:09;;;;;;;10.80;2.85;;;;;;;;;;4972841;28;20423;-65
2023/07/01 10:19:35;;;;;;;12.63;3.15;;;;;;;;;;4978348;28;20443;-65
2023/07/01 10:22:22;;;;;;;10.13;2.72;;;;;;;;;;4974506;28;20457;-64
2023/07/01 10:24:56;;;;;;;10.60;3.22;;;;;;;;;;4958916;28;20829;-65
2023/07/01 10:27:41;;;;;;;11.13;3.30;;;;;;;;;;4977173;28;20498;-65
2023/07/01 10:30:08;;;;;;;11.30;3.22;;;;;;;;;;4976260;28;20080;-65
2023/07/01 10:32:34;;;;;;;9.80;3.25;;;;;;;;;;4977014;28;20022;-65
2023/07/01 10:35:03;;;;;;;10.40;3.50;;;;;;;;;;4973545;28;20088;-65
2023/07/01 10:37:30;;;;;;;10.10;3.15;;;;;;;;;;4973766;28;20018;-65
2023/07/01 10:39:56;;;;;;;9.80;2.83;;;;;;;;;;4974570;28;20348;-65
2023/07/01 10:42:31;;;;;;;11.20;3.30;;;;;;;;;;4961052;28;20579;-66
2023/07/01 10:45:13;;;;;;;14.93;3.90;;;;;;;;;;4954095;28;20865;-65
2023/07/01 10:47:43;;;;;;;11.63;3.08;;;;;;;;;;4973337;28;20364;-65
2023/07/01 10:50:10;;;;;;;11.13;3.08;;;;;;;;;;4959934;28;20153;-65
2023/07/01 10:52:58;;;;;;;9.60;3.38;;;;;;;;;;4979217;28;20026;-67
2023/07/01 10:55:43;;;;;;;12.40;3.13;;;;;;;;;;4982222;28;20107;-66
2023/07/01 10:58:22;;;;;;;13.75;3.70;;;;;;;;;;4965787;28;20030;-67
2023/07/01 11:00:52;;;;;;;11.73;3.00;;;;;;;;;;4966674;28;20127;-65
2023/07/01 11:03:33;;;;;;;14.73;3.90;;;;;;;;;;4967953;28;20037;-66
2023/07/01 11:06:01;;;;;;;12.38;3.40;;;;;;;;;;4962248;28;20034;-67
2023/07/01 11:08:27;;;;;;;10.02;3.40;;;;;;;;;;4982805;28;20446;-67
2023/07/01 11:10:54;;;;;;;11.05;3.70;;;;;;;;;;4962471;28;20036;-67
2023/07/01 11:13:20;;;;;;;11.38;3.50;;;;;;;;;;4967835;28;20026;-67
2023/07/01 11:16:06;;;;;;;10.30;3.90;;;;;;;;;;4982467;28;20357;-65
2023/07/01 11:18:50;;;;;;;11.15;4.20;;;;;;;;;;4983648;28;20058;-67
2023/07/01 11:21:34;;;;;;;10.98;3.90;;;;;;;;;;4964695;28;20444;-67
2023/07/01 11:24:04;;;;;;;10.07;4.40;;;;;;;;;;4978160;28;20034;-68
2023/07/01 11:26:40;;;;;;;10.27;4.03;;;;;;;;;;4968580;28;20128;-65
2023/07/01 11:29:11;;;;;;;11.55;4.90;;;;;;;;;;4977578;28;21803;-66
2023/07/01 11:31:37;;;;;;;10.88;4.43;;;;;;;;;;4980565;28;20081;-66
2023/07/01 11:34:04;;;;;;;10.57;4.00;;;;;;;;;;4984207;28;20104;-66
2023/07/01 11:36:40;;;;;;;9.63;3.50;;;;;;;;;;4981017;28;20044;-66
2023/07/01 11:39:12;;;;;;;10.23;3.60;;;;;;;;;;4980375;28;21262;-66
2023/07/01 11:41:41;;;;;;;10.32;3.72;;;;;;;;;;4986329;28;20432;-66
2023/07/01 11:44:12;;;;;;;10.70;3.88;;;;;;;;;;4977934;28;20038;-66
2023/07/01 11:46:39;;;;;;;9.00;3.67;;;;;;;;;;4982895;28;20042;-66
2023/07/01 11:49:31;;;;;;;8.95;3.33;;;;;;;;;;4977648;28;20112;-66
2023/07/01 11:51:59;;;;;;;11.98;4.43;;;;;;;;;;4955160;28;20451;-66
2023/07/01 11:54:41;;;;;;;10.10;4.15;;;;;;;;;;4980508;28;20041;-66
2023/07/01 11:57:14;;;;;;;9.93;4.18;;;;;;;;;;4966625;28;20493;-66
2023/07/01 11:59:41;;;;;;;11.35;4.50;;;;;;;;;;4983075;28;20690;-66
2023/07/01 12:02:08;;;;;;;14.50;4.68;;;;;;;;;;4979035;28;20858;-66
2023/07/01 12:04:35;;;;;;;11.40;4.53;;;;;;;;;;4982268;28;20038;-65
2023/07/01 12:07:17;;;;;;;13.32;5.63;;;;;;;;;;4979852;28;20349;-66
2023/07/01 12:09:47;;;;;;;12.52;5.57;;;;;;;;;;4982793;28;20532;-66
2023/07/01 12:12:18;;;;;;;11.57;5.03;;;;;;;;;;4963921;28;20370;-66
2023/07/01 12:14:48;;;;;;;11.93;4.60;;;;;;;;;;4966417;28;20605;-66
2023/07/01 12:17:28;;;;;;;11.68;4.80;;;;;;;;;;4982799;28;20033;-66
2023/07/01 12:19:54;;;;;;;10.68;4.70;;;;;;;;;;4981659;28;20452;-65
2023/07/01 12:22:20;;;;;;;12.32;4.35;;;;;;;;;;4981933;28;20369;-66
2023/07/01 12:24:53;;;;;;;10.32;4.40;;;;;;;;;;4984319;28;20513;-65
2023/07/01 12:27:19;;;;;;;10.98;4.40;;;;;;;;;;4963665;28;20125;-66
2023/07/01 12:29:46;;;;;;;10.73;4.32;;;;;;;;;;4982551;28;20038;-66
2023/07/01 12:32:12;;;;;;;10.60;4.18;;;;;;;;;;4968787;28;20061;-67
2023/07/01 12:34:38;;;;;;;12.07;4.50;;;;;;;;;;4982244;28;20503;-66
2023/07/01 12:37:04;;;;;;;11.60;4.50;;;;;;;;;;4981175;28;20492;-66
2023/07/01 12:39:31;;;;;;;10.63;4.65;;;;;;;;;;4962281;28;20499;-66
2023/07/01 12:41:58;;;;;;;12.25;4.75;;;;;;;;;;4977513;28;20046;-66
2023/07/01 12:44:25;;;;;;;10.55;4.63;;;;;;;;;;4967725;28;20485;-66
2023/07/01 12:46:51;;;;;;;11.50;4.90;;;;;;;;;;4979447;28;20042;-65
2023/07/01 12:49:17;;;;;;;10.23;4.80;;;;;;;;;;4979932;28;20029;-67
2023/07/01 12:51:44;;;;;;;11.82;5.30;;;;;;;;;;4983142;28;20032;-65
2023/07/01 12:54:11;;;;;;;13.40;6.07;;;;;;;;;;4977632;28;20494;-65
2023/07/01 12:56:37;;;;;;;15.57;6.05;;;;;;;;;;4984133;28;20038;-66
2023/07/01 12:59:04;;;;;;;11.52;6.13;;;;;;;;;;4979625;28;20029;-66
2023/07/01 13:01:31;;;;;;;11.48;5.10;;;;;;;;;;4983676;28;20037;-66
2023/07/01 13:03:57;;;;;;;9.93;3.97;;;;;;;;;;4963558;28;20029;-66
2023/07/01 13:06:27;;;;;;;11.60;5.95;;;;;;;;;;4983494;28;20619;-66
2023/07/01 13:08:56;;;;;;;10.18;4.50;;;;;;;;;;4980389;28;20025;-67
2023/07/01 13:11:23;;;;;;;9.38;4.05;;;;;;;;;;4981531;28;20864;-65
2023/07/01 13:13:50;;;;;;;8.77;4.03;;;;;;;;;;4980772;28;20026;-65
2023/07/01 13:16:25;;;;;;;9.50;4.03;;;;;;;;;;4981338;28;20435;-65
2023/07/01 13:18:52;;;;;;;10.00;4.05;;;;;;;;;;4958387;28;20042;-66
2023/07/01 13:21:18;;;;;;;10.18;4.03;;;;;;;;;;4963017;28;20122;-67
2023/07/01 13:23:44;;;;;;;10.63;4.53;;;;;;;;;;4960725;28;20132;-69
2023/07/01 13:26:10;;;;;;;11.60;4.32;;;;;;;;;;4961487;28;20041;-67
2023/07/01 13:28:36;;;;;;;10.98;4.28;;;;;;;;;;4960685;28;20126;-66
2023/07/01 13:31:03;;;;;;;13.88;6.82;;;;;;;;;;4959390;28;20527;-64
2023/07/01 13:33:29;;;;;;;13.07;5.13;;;;;;;;;;4961300;28;20637;-66
2023/07/01 13:35:55;;;;;;;10.90;4.47;;;;;;;;;;4957285;28;20030;-65
2023/07/01 13:38:22;;;;;;;12.00;4.20;;;;;;;;;;4962281;28;20211;-65
2023/07/01 13:40:49;;;;;;;10.90;4.38;;;;;;;;;;4961156;28;20565;-65
2023/07/01 13:43:17;;;;;;;9.88;4.03;;;;;;;;;;4963032;28;20076;-66
2023/07/01 13:45:44;;;;;;;13.30;4.57;;;;;;;;;;4963525;28;20049;-65
2023/07/01 13:48:12;;;;;;;10.80;4.10;;;;;;;;;;4958196;28;20030;-65
2023/07/01 13:50:39;;;;;;;13.43;5.88;;;;;;;;;;4961715;28;20030;-65
2023/07/01 13:53:08;;;;;;;11.45;6.43;;;;;;;;;;4957642;28;20041;-68
2023/07/01 13:55:34;;;;;;;13.50;5.30;;;;;;;;;;4963836;28;20468;-67
2023/07/01 13:58:01;;;;;;;10.38;4.57;;;;;;;;;;4958978;28;20364;-65
2023/07/01 14:00:38;;;;;;;12.15;4.55;;;;;;;;;;4962847;28;20041;-64
2023/07/01 14:03:06;;;;;;;11.07;4.10;;;;;;;;;;4959696;28;20456;-67
2023/07/01 14:05:34;;;;;;;8.52;4.00;;;;;;;;;;4960202;28;20038;-65
2023/07/01 14:08:01;;;;;;;10.30;4.38;;;;;;;;;;4959789;28;20603;-65
2023/07/01 14:10:32;;;;;;;10.98;3.90;;;;;;;;;;4961234;28;20061;-64
2023/07/01 14:12:58;;;;;;;15.85;4.60;;;;;;;;;;4956468;28;20135;-66
2023/07/01 14:15:41;;;;;;;10.10;3.63;;;;;;;;;;4963240;28;20430;-65
2023/07/01 14:18:19;;;;;;;9.95;4.10;;;;;;;;;;4966595;28;20046;-64
2023/07/01 14:20:50;;;;;;;10.88;4.30;;;;;;;;;;4981526;28;20060;-65
2023/07/01 14:23:23;;;;;;;9.65;3.90;;;;;;;;;;4960765;28;20029;-66
2023/07/01 14:25:53;;;;;;;9.73;4.18;;;;;;;;;;4978510;28;20504;-66
2023/07/01 14:28:23;;;;;;;8.65;3.78;;;;;;;;;;4981418;28;20408;-65
2023/07/01 14:31:08;;;;;;;9.80;3.67;;;;;;;;;;4960875;28;20487;-65
2023/07/01 14:33:46;;;;;;;9.48;3.85;;;;;;;;;;4980127;28;20214;-65
2023/07/01 14:36:15;;;;;;;9.05;3.50;;;;;;;;;;4963593;28;20042;-65